Indian Springs Air Force Aux, Nevada
Current Conditions -  °F | °C
As of 12:58 AM on Friday 24 Oct 2014 (Local Time) from KLSV Reporting Station
Clear Clear  
Wind Chill: 70°   Ceiling: Unl
Heat Index: 70°   Visibility: 10mi
Dew Point: 37°   Wind: 5mph
Humidity: 30%   Direction: 70°ENE
Pressure: 30.04"   Gusts: NA
Location:  36.2388°N, 115.042°W
Report Text: KLSV 240758Z AUTO 07004KT 10SM CLR 21/03 A3004 RMK AO2 SLP153 T02110026 402940133 $
Loading
Personal Weather Stations






























Interactive Weather Map
Tropical Storm Tracking
New forecast layout! Learn more

10-Day Weather Forecast

Advertisements
Track Severe Weather on mobile